Time;durP1;ratioP1;P1;durP2;ratioP2;P2;SDS_P1;SDS_P2;PMS_P1;PMS_P2;Temp;Humidity;BMP_temperature;BMP_pressure;BME280_temperature;BME280_humidity;BME280_pressure;Samples;Min_cycle;Max_cycle;Signal;HPM_P1;HPM_P2
2022/04/02 00:00:22;;;;;;;;;;;;;;;-0.04;59.80;98188.34;5093085;28;20410;-64
2022/04/02 00:02:48;;;;;;;;;;;;;;;-0.04;60.11;98193.53;5092166;28;20027;-65
2022/04/02 00:05:13;;;;;;;;;;;;;;;-0.03;60.32;98169.09;5092740;28;20305;-63
2022/04/02 00:07:39;;;;;;;;;;;;;;;-0.03;60.09;98177.72;5092590;28;20026;-64
2022/04/02 00:10:05;;;;;;;;;;;;;;;0.08;59.77;98178.13;5087935;28;20359;-62
2022/04/02 00:12:31;;;;;;;;;;;;;;;0.12;60.17;98168.91;5073239;28;19928;-63
2022/04/02 00:14:56;;;;;;;;;;;;;;;0.09;59.79;98184.94;5072013;28;19947;-63
2022/04/02 00:17:23;;;;;;;;;;;;;;;-0.01;60.16;98167.09;5082480;28;19946;-61
2022/04/02 00:19:48;;;;;;;;;;;;;;;0.07;59.95;98151.28;5092132;28;20465;-62
2022/04/02 00:22:14;;;;;;;;;;;;;;;0.01;60.40;98167.72;5092427;28;19928;-61
2022/04/02 00:24:41;;;;;;;;;;;;;;;0.11;60.17;98146.47;5092521;28;19924;-61
2022/04/02 00:27:06;;;;;;;;;;;;;;;0.09;60.56;98153.66;5090284;28;20377;-61
2022/04/02 00:29:34;;;;;;;;;;;;;;;0.05;60.33;98147.25;5092417;28;19961;-60
2022/04/02 00:32:00;;;;;;;;;;;;;;;0.05;60.33;98149.88;5091074;28;19967;-60
2022/04/02 00:34:25;;;;;;;;;;;;;;;-0.01;60.86;98141.03;5090986;28;20020;-61
2022/04/02 00:36:51;;;;;;;;;;;;;;;-0.02;60.73;98144.66;5091270;28;19928;-61
2022/04/02 00:39:16;;;;;;;;;;;;;;;0.01;60.94;98154.69;5092549;28;19924;-63
2022/04/02 00:41:41;;;;;;;;;;;;;;;0.00;60.85;98147.88;5092049;28;19963;-63
2022/04/02 00:44:11;;;;;;;;;;;;;;;0.03;60.55;98147.47;5090998;28;19928;-61
2022/04/02 00:46:37;;;;;;;;;;;;;;;0.08;60.64;98132.03;5090838;28;20817;-61
2022/04/02 00:49:04;;;;;;;;;;;;;;;0.07;60.83;98135.63;5084613;28;19935;-62
2022/04/02 00:51:31;;;;;;;;;;;;;;;0.07;60.64;98130.44;5074815;28;20300;-64
2022/04/02 00:53:57;;;;;;;;;;;;;;;0.02;61.13;98117.19;5073896;28;20022;-63
2022/04/02 00:56:22;;;;;;;;;;;;;;;0.03;61.28;98115.38;5056089;28;19966;-65
2022/04/02 00:58:48;;;;;;;;;;;;;;;0.06;61.09;98118.41;5092017;28;19928;-64
2022/04/02 01:01:14;;;;;;;;;;;;;;;0.01;60.79;98115.59;5081096;28;19924;-64
2022/04/02 01:03:42;;;;;;;;;;;;;;;0.05;60.87;98113.38;5074420;28;19986;-64
2022/04/02 01:06:10;;;;;;;;;;;;;;;-0.01;61.40;98112.38;5090877;28;19924;-63
2022/04/02 01:08:37;;;;;;;;;;;;;;;-0.07;61.54;98102.78;5089826;28;19935;-64
2022/04/02 01:11:04;;;;;;;;;;;;;;;-0.06;61.22;98105.19;5050305;28;19960;-63
2022/04/02 01:13:31;;;;;;;;;;;;;;;-0.05;60.98;98108.59;5083530;28;19928;-64
2022/04/02 01:15:59;;;;;;;;;;;;;;;-0.03;61.22;98093.53;5090514;28;20445;-64
2022/04/02 01:18:25;;;;;;;;;;;;;;;-0.05;61.08;98098.16;5090364;28;19935;-63
2022/04/02 01:20:55;;;;;;;;;;;;;;;-0.01;61.09;98107.19;5090512;28;19923;-62
2022/04/02 01:23:30;;;;;;;;;;;;;;;0.00;60.49;98087.97;5090331;28;19928;-64
2022/04/02 01:26:04;;;;;;;;;;;;;;;-0.07;60.86;98094.97;5092102;28;20016;-64
2022/04/02 01:28:34;;;;;;;;;;;;;;;-0.04;60.80;98089.34;5090558;28;20395;-65
2022/04/02 01:31:05;;;;;;;;;;;;;;;-0.13;60.30;98087.94;5089626;28;20063;-64
2022/04/02 01:33:31;;;;;;;;;;;;;;;-0.11;60.23;98098.97;5090508;28;20333;-65
2022/04/02 01:36:01;;;;;;;;;;;;;;;-0.07;60.34;98074.91;5090525;28;19924;-61
2022/04/02 01:38:28;;;;;;;;;;;;;;;-0.13;60.38;98069.72;5089552;28;20408;-62
2022/04/02 01:40:56;;;;;;;;;;;;;;;-0.15;60.47;98069.91;5090152;28;19967;-63
2022/04/02 01:43:29;;;;;;;;;;;;;;;-0.22;60.71;98071.72;5074410;28;19932;-61
2022/04/02 01:45:56;;;;;;;;;;;;;;;-0.16;60.45;98070.13;5091882;28;19931;-61
2022/04/02 01:48:25;;;;;;;;;;;;;;;-0.17;60.32;98068.53;5089980;28;20405;-61
2022/04/02 01:50:57;;;;;;;;;;;;;;;-0.26;60.65;98071.31;5089758;28;20450;-60
2022/04/02 01:53:24;;;;;;;;;;;;;;;-0.25;60.79;98072.91;5090300;28;20026;-60
2022/04/02 01:55:50;;;;;;;;;;;;;;;-0.31;60.60;98065.09;5091662;28;19924;-62
2022/04/02 01:58:31;;;;;;;;;;;;;;;-0.25;60.85;98074.72;5092899;28;19928;-61
2022/04/02 02:00:59;;;;;;;;;;;;;;;-0.25;60.46;98065.09;5066550;28;19932;-59
2022/04/02 02:03:25;;;;;;;;;;;;;;;-0.20;60.46;98067.13;5070934;28;20400;-61
2022/04/02 02:05:50;;;;;;;;;;;;;;;-0.22;60.70;98070.91;5095281;28;19925;-61
2022/04/02 02:08:16;;;;;;;;;;;;;;;-0.24;60.89;98066.72;5093678;28;19960;-60
2022/04/02 02:11:11;;;;;;;;;;;;;;;-0.23;60.90;98057.09;5094686;28;19927;-61
2022/04/02 02:13:46;;;;;;;;;;;;;;;-0.21;60.62;98056.88;5093851;28;19928;-60
2022/04/02 02:16:15;;;;;;;;;;;;;;;-0.24;60.86;98058.91;5093869;28;19924;-62
2022/04/02 02:18:41;;;;;;;;;;;;;;;-0.27;61.01;98059.28;5093441;28;19989;-63
2022/04/02 02:21:07;;;;;;;;;;;;;;;-0.35;61.24;98051.69;5095005;28;19931;-62
2022/04/02 02:23:32;;;;;;;;;;;;;;;-0.28;61.25;98041.25;5094562;28;19928;-63
2022/04/02 02:25:58;;;;;;;;;;;;;;;-0.32;61.01;98056.50;5093498;28;19924;-63
2022/04/02 02:28:24;;;;;;;;;;;;;;;-0.26;60.90;98055.69;5091090;28;19928;-64
2022/04/02 02:30:53;;;;;;;;;;;;;;;-0.31;60.57;98057.28;5073338;28;20282;-63
2022/04/02 02:36:03;;;;;;;;;;;;;;;-0.33;61.08;98038.44;5073123;28;19924;-63
2022/04/02 02:38:43;;;;;;;;;;;;;;;-0.33;60.88;98036.66;5087122;28;19959;-63
2022/04/02 02:41:23;;;;;;;;;;;;;;;-0.41;60.96;98049.88;5077888;28;19952;-63
2022/04/02 02:43:53;;;;;;;;;;;;;;;-0.37;61.09;98051.06;5092783;28;19932;-63
2022/04/02 02:46:28;;;;;;;;;;;;;;;-0.39;60.55;98053.06;5093235;28;19930;-60
2022/04/02 02:48:59;;;;;;;;;;;;;;;-0.39;60.55;98062.69;5091688;28;20418;-63
2022/04/02 02:51:26;;;;;;;;;;;;;;;-0.33;60.58;98044.47;5092968;28;20022;-62
2022/04/02 02:53:51;;;;;;;;;;;;;;;-0.36;59.92;98051.88;5093070;28;19936;-63
2022/04/02 02:56:18;;;;;;;;;;;;;;;-0.44;61.13;98045.06;5076015;28;19953;-62
2022/04/02 02:58:46;;;;;;;;;;;;;;;-0.40;60.64;98058.50;5075418;28;20357;-63
2022/04/02 03:01:11;;;;;;;;;;;;;;;-0.42;60.10;98050.88;5092656;28;19924;-60
2022/04/02 03:03:38;;;;;;;;;;;;;;;-0.43;60.34;98051.09;5093016;28;19935;-61
2022/04/02 03:06:06;;;;;;;;;;;;;;;-0.49;60.40;98043.06;5092608;28;20365;-60
2022/04/02 03:08:39;;;;;;;;;;;;;;;-0.39;60.06;98042.66;5058663;28;19932;-61
2022/04/02 03:11:06;;;;;;;;;;;;;;;-0.36;60.70;98047.47;5092399;28;20018;-61
2022/04/02 03:13:33;;;;;;;;;;;;;;;-0.41;60.14;98042.06;5092316;28;20362;-61
2022/04/02 03:16:10;;;;;;;;;;;;;;;-0.44;60.09;98049.47;5092470;28;20072;-60
2022/04/02 03:18:43;;;;;;;;;;;;;;;-0.45;60.01;98033.03;5092041;28;19928;-62
2022/04/02 03:21:14;;;;;;;;;;;;;;;-0.45;59.87;98043.47;5093755;28;19924;-61
2022/04/02 03:23:40;;;;;;;;;;;;;;;-0.50;59.94;98040.63;5092694;28;19939;-62
2022/04/02 03:26:06;;;;;;;;;;;;;;;-0.57;59.82;98039.84;5092236;28;19924;-60
2022/04/02 03:28:37;;;;;;;;;;;;;;;-0.58;59.53;98046.84;5091349;28;20414;-60
2022/04/02 03:31:03;;;;;;;;;;;;;;;-0.58;59.51;98038.25;5091938;28;19924;-61
2022/04/02 03:33:30;;;;;;;;;;;;;;;-0.54;59.83;98036.84;5092166;28;20027;-65
2022/04/02 03:35:59;;;;;;;;;;;;;;;-0.59;59.39;98045.25;5091926;28;19935;-66
2022/04/02 03:38:25;;;;;;;;;;;;;;;-0.63;59.74;98051.06;5091732;28;19936;-64
2022/04/02 03:40:51;;;;;;;;;;;;;;;-0.63;59.24;98032.84;5092974;28;19977;-64
2022/04/02 03:43:16;;;;;;;;;;;;;;;-0.64;59.45;98039.84;5092076;28;19994;-64
2022/04/02 03:45:42;;;;;;;;;;;;;;;-0.58;59.54;98035.66;5091813;28;19924;-64
2022/04/02 03:48:09;;;;;;;;;;;;;;;-0.60;59.21;98038.44;5092342;28;19932;-65
2022/04/02 03:50:39;;;;;;;;;;;;;;;-0.58;59.10;98046.06;5091684;28;19967;-63
2022/04/02 03:53:07;;;;;;;;;;;;;;;-0.58;59.25;98048.66;5092007;28;19928;-64
2022/04/02 03:55:37;;;;;;;;;;;;;;;-0.61;59.40;98031.63;5086321;28;20296;-65
2022/04/02 03:58:13;;;;;;;;;;;;;;;-0.62;59.48;98035.22;5074693;28;19935;-64
2022/04/02 04:00:39;;;;;;;;;;;;;;;-0.58;60.27;98027.84;5091426;28;19928;-65
2022/04/02 04:03:09;;;;;;;;;;;;;;;-0.64;60.09;98024.22;5091652;28;20030;-63
2022/04/02 04:05:39;;;;;;;;;;;;;;;-0.61;60.83;98008.22;5091285;28;20057;-65
2022/04/02 04:08:05;;;;;;;;;;;;;;;-0.70;61.24;97994.59;5090746;28;19981;-64
2022/04/02 04:10:32;;;;;;;;;;;;;;;-0.75;61.84;98012.59;5089946;28;19924;-64
2022/04/02 04:12:58;;;;;;;;;;;;;;;-0.73;61.85;98007.22;5074606;28;19951;-64
2022/04/02 04:15:28;;;;;;;;;;;;;;;-0.76;62.16;98016.22;5091329;28;19955;-64
2022/04/02 04:17:56;;;;;;;;;;;;;;;-0.74;63.15;98005.59;5073964;28;19928;-65
2022/04/02 04:20:22;;;;;;;;;;;;;;;-0.85;63.65;98017.41;5073532;28;19946;-64
2022/04/02 04:22:48;;;;;;;;;;;;;;;-0.87;63.66;98016.00;5091166;28;20393;-65
2022/04/02 04:25:16;;;;;;;;;;;;;;;-0.89;64.35;98008.38;5073022;28;20332;-64
2022/04/02 04:27:44;;;;;;;;;;;;;;;-0.81;63.66;98012.59;5091423;28;19924;-61
2022/04/02 04:30:10;;;;;;;;;;;;;;;-0.87;64.57;98008.19;5074116;28;20042;-61
2022/04/02 04:32:36;;;;;;;;;;;;;;;-0.85;64.21;98011.38;5091094;28;20435;-61
2022/04/02 04:35:03;;;;;;;;;;;;;;;-0.85;64.72;98006.16;5078164;28;19928;-62
2022/04/02 04:37:29;;;;;;;;;;;;;;;-0.81;64.68;98020.41;5091318;28;19924;-63
2022/04/02 04:39:55;;;;;;;;;;;;;;;-0.80;64.52;98012.38;5091167;28;20029;-63
2022/04/02 04:42:21;;;;;;;;;;;;;;;-0.84;64.59;98015.59;5090534;28;19928;-63
2022/04/02 04:44:51;;;;;;;;;;;;;;;-0.83;64.02;98019.78;5090930;28;19986;-63
2022/04/02 04:47:18;;;;;;;;;;;;;;;-0.84;64.61;98007.78;5087243;28;19935;-62
2022/04/02 04:49:49;;;;;;;;;;;;;;;-0.87;64.64;98001.19;5091027;28;20023;-61
2022/04/02 04:52:15;;;;;;;;;;;;;;;-0.93;64.95;98013.16;5077910;28;20027;-57
2022/04/02 04:54:41;;;;;;;;;;;;;;;-0.94;64.88;97998.56;5070410;28;20248;-58
2022/04/02 04:57:13;;;;;;;;;;;;;;;-0.78;64.39;98007.00;5070595;28;19929;-59
2022/04/02 04:59:43;;;;;;;;;;;;;;;-0.76;64.72;98011.00;5070602;28;19924;-60
2022/04/02 05:02:12;;;;;;;;;;;;;;;-0.71;65.05;97998.22;5085446;28;20072;-57
2022/04/02 05:04:39;;;;;;;;;;;;;;;-0.76;65.12;98005.81;5060023;28;19929;-57
2022/04/02 05:07:06;;;;;;;;;;;;;;;-0.81;66.05;98008.19;5076616;28;20400;-57
2022/04/02 05:09:33;;;;;;;;;;;;;;;-0.86;66.53;97997.56;5091735;28;20403;-60
2022/04/02 05:12:03;;;;;;;;;;;;;;;-0.85;67.15;97993.97;5081611;28;20317;-59
2022/04/02 05:14:30;;;;;;;;;;;;;;;-0.92;67.97;97993.94;5071295;28;19928;-59
2022/04/02 05:16:58;;;;;;;;;;;;;;;-0.86;68.64;98000.16;5080618;28;19928;-62
2022/04/02 05:19:28;;;;;;;;;;;;;;;-0.83;68.78;97991.97;5071410;28;19924;-61
2022/04/02 05:21:56;;;;;;;;;;;;;;;-0.75;69.08;97991.78;5054832;28;19934;-62
2022/04/02 05:24:22;;;;;;;;;;;;;;;-0.79;68.62;97987.97;5070162;28;20309;-56
2022/04/02 05:26:52;;;;;;;;;;;;;;;-0.80;69.45;97999.38;5071926;28;19928;-63
2022/04/02 05:29:18;;;;;;;;;;;;;;;-0.84;70.13;97981.78;5083399;28;19924;-61
2022/04/02 05:31:44;;;;;;;;;;;;;;;-0.81;69.57;97982.16;5088238;28;19924;-62
2022/04/02 05:34:09;;;;;;;;;;;;;;;-0.68;69.68;97986.56;5083577;28;19936;-59
2022/04/02 05:36:38;;;;;;;;;;;;;;;-0.71;69.45;97989.56;5089795;28;20396;-62
2022/04/02 05:39:04;;;;;;;;;;;;;;;-0.61;70.00;97982.19;5094538;28;19936;-60
2022/04/02 05:41:30;;;;;;;;;;;;;;;-0.61;69.84;97978.78;5092750;28;19928;-61
2022/04/02 05:43:55;;;;;;;;;;;;;;;-0.47;69.37;97967.38;5084565;28;20031;-65
2022/04/02 05:46:22;;;;;;;;;;;;;;;-0.36;68.69;97974.56;5077416;28;19929;-66
2022/04/02 05:48:48;;;;;;;;;;;;;;;-0.34;68.43;97980.38;5087612;28;20414;-64
2022/04/02 05:51:13;;;;;;;;;;;;;;;-0.27;68.37;97981.16;5075298;28;20019;-64
2022/04/02 05:53:39;;;;;;;;;;;;;;;-0.41;69.13;97970.94;5069494;28;19945;-66
2022/04/02 05:56:04;;;;;;;;;;;;;;;-0.51;69.54;97969.56;5055137;28;19931;-64
2022/04/02 05:58:30;;;;;;;;;;;;;;;-0.48;69.48;97961.34;5080338;28;19936;-61
2022/04/02 06:00:55;;;;;;;;;;;;;;;-0.39;70.29;97961.16;5073190;28;19924;-63
2022/04/02 06:03:21;;;;;;;;;;;;;;;-0.52;70.39;97957.56;5075593;28;19935;-58
2022/04/02 06:05:48;;;;;;;;;;;;;;;-0.38;70.33;97947.94;5089516;28;19924;-62
2022/04/02 06:08:14;;;;;;;;;;;;;;;-0.17;70.12;97944.31;5094115;28;19927;-62
2022/04/02 06:10:39;;;;;;;;;;;;;;;-0.23;70.49;97947.72;5090517;28;19928;-64
2022/04/02 06:13:05;;;;;;;;;;;;;;;-0.01;71.02;97950.88;5094316;28;19928;-62
2022/04/02 06:15:30;;;;;;;;;;;;;;;0.10;69.59;97957.25;5089923;28;20455;-61
2022/04/02 06:17:56;;;;;;;;;;;;;;;-0.02;70.15;97967.50;5094770;28;19936;-61
2022/04/02 06:20:21;;;;;;;;;;;;;;;-0.02;70.32;97951.88;5094676;28;19924;-61
2022/04/02 06:22:47;;;;;;;;;;;;;;;0.07;70.14;97939.44;5092165;28;19978;-61
2022/04/02 06:25:12;;;;;;;;;;;;;;;0.27;69.50;97945.38;5089088;28;20329;-60
2022/04/02 06:27:41;;;;;;;;;;;;;;;0.12;69.51;97940.41;5086535;28;20039;-61
2022/04/02 06:30:07;;;;;;;;;;;;;;;0.13;69.73;97936.81;5094189;28;20015;-57
2022/04/02 06:32:33;;;;;;;;;;;;;;;0.07;69.86;97949.84;5094628;28;20018;-62
2022/04/02 06:35:00;;;;;;;;;;;;;;;0.19;70.97;97922.16;5075056;28;20289;-60
2022/04/02 06:37:25;;;;;;;;;;;;;;;0.31;70.69;97930.13;5093029;28;19973;-59
2022/04/02 06:39:51;;;;;;;;;;;;;;;0.46;70.52;97925.44;5094737;28;19924;-60
2022/04/02 06:42:17;;;;;;;;;;;;;;;0.41;70.29;97920.03;5093801;28;20420;-60
2022/04/02 06:44:50;;;;;;;;;;;;;;;0.58;69.69;97915.16;5065299;28;19924;-62
2022/04/02 06:47:17;;;;;;;;;;;;;;;0.52;70.81;97908.97;5082925;28;20470;-63
2022/04/02 06:49:43;;;;;;;;;;;;;;;0.40;70.99;97905.41;5089365;28;20408;-61
2022/04/02 06:52:08;;;;;;;;;;;;;;;0.47;70.10;97887.91;5082003;28;19974;-61
2022/04/02 06:54:34;;;;;;;;;;;;;;;0.47;70.54;97885.31;5094153;28;19924;-61
2022/04/02 06:57:00;;;;;;;;;;;;;;;0.55;70.18;97872.03;5087477;28;19931;-62
2022/04/02 06:59:25;;;;;;;;;;;;;;;0.30;71.27;97858.97;5092767;28;19924;-61
2022/04/02 07:01:51;;;;;;;;;;;;;;;0.55;70.51;97863.41;5093776;28;19971;-61
2022/04/02 07:04:16;;;;;;;;;;;;;;;0.55;70.97;97847.78;5092436;28;19924;-61
2022/04/02 07:06:45;;;;;;;;;;;;;;;0.66;70.58;97845.28;5078530;28;19920;-60
2022/04/02 07:09:11;;;;;;;;;;;;;;;0.74;70.92;97853.88;5090436;28;19929;-61
2022/04/02 07:11:37;;;;;;;;;;;;;;;0.51;70.54;97847.41;5092389;28;19924;-61
2022/04/02 07:14:03;;;;;;;;;;;;;;;0.80;70.25;97845.22;5093011;28;19935;-61
2022/04/02 07:16:28;;;;;;;;;;;;;;;0.97;70.43;97841.06;5093931;28;19931;-61
2022/04/02 07:18:54;;;;;;;;;;;;;;;0.96;70.10;97836.84;5093864;28;19928;-62
2022/04/02 07:21:20;;;;;;;;;;;;;;;0.98;69.90;97839.25;5092863;28;20338;-61
2022/04/02 07:23:46;;;;;;;;;;;;;;;1.04;69.39;97833.19;5076660;28;19935;-63
2022/04/02 07:26:12;;;;;;;;;;;;;;;1.05;70.67;97832.94;5071886;28;19924;-60
2022/04/02 07:28:37;;;;;;;;;;;;;;;1.17;69.84;97840.88;5091679;28;20221;-61
2022/04/02 07:31:03;;;;;;;;;;;;;;;1.25;70.35;97829.38;5090323;28;20301;-61
2022/04/02 07:33:28;;;;;;;;;;;;;;;1.24;69.92;97833.00;5060967;28;19928;-61
2022/04/02 07:36:08;;;;;;;;;;;;;;;1.12;70.27;97822.47;5035311;28;20317;-61
2022/04/02 07:38:39;;;;;;;;;;;;;;;1.19;70.42;97819.78;5068581;28;19936;-61
2022/04/02 07:41:18;;;;;;;;;;;;;;;1.38;69.26;97816.19;5073190;28;19924;-62
2022/04/02 07:43:47;;;;;;;;;;;;;;;1.22;70.54;97807.09;5071865;28;20019;-62
2022/04/02 07:46:19;;;;;;;;;;;;;;;1.22;70.05;97816.75;5072841;28;19932;-62
2022/04/02 07:48:45;;;;;;;;;;;;;;;1.06;71.01;97812.88;5076505;28;19935;-63
2022/04/02 07:51:12;;;;;;;;;;;;;;;1.21;70.95;97817.78;5075481;28;19931;-63
2022/04/02 07:53:45;;;;;;;;;;;;;;;1.21;71.55;97808.13;5052752;28;19929;-64
2022/04/02 07:56:31;;;;;;;;;;;;;;;1.22;72.33;97801.09;5065369;28;19930;-62
2022/04/02 07:59:01;;;;;;;;;;;;;;;1.13;73.15;97819.63;5072185;28;20465;-62
2022/04/02 08:01:27;;;;;;;;;;;;;;;1.18;73.57;97823.41;5079040;28;19924;-65
2022/04/02 08:03:53;;;;;;;;;;;;;;;1.42;72.77;97811.34;5076717;28;19939;-60
2022/04/02 08:06:19;;;;;;;;;;;;;;;1.32;71.15;97817.88;5040877;28;20043;-61
2022/04/02 08:08:45;;;;;;;;;;;;;;;1.30;71.36;97816.47;5091663;28;20400;-63
2022/04/02 08:11:11;;;;;;;;;;;;;;;1.33;71.60;97813.44;5074580;28;19928;-63
2022/04/02 08:13:41;;;;;;;;;;;;;;;1.42;71.20;97821.78;5071056;28;20332;-61
2022/04/02 08:16:08;;;;;;;;;;;;;;;1.44;71.71;97814.50;5070493;28;19924;-60
2022/04/02 08:18:33;;;;;;;;;;;;;;;1.57;70.64;97799.50;5073142;28;19927;-62
2022/04/02 08:20:59;;;;;;;;;;;;;;;1.58;70.77;97800.31;5090976;28;19928;-62
2022/04/02 08:23:29;;;;;;;;;;;;;;;1.64;71.67;97788.19;5081711;28;19938;-62
2022/04/02 08:26:12;;;;;;;;;;;;;;;1.55;71.05;97790.28;5090604;28;20455;-62
2022/04/02 08:28:49;;;;;;;;;;;;;;;1.55;70.91;97766.78;5090640;28;20285;-62
2022/04/02 08:31:17;;;;;;;;;;;;;;;1.72;72.66;97761.78;5085063;28;20385;-60
2022/04/02 08:33:43;;;;;;;;;;;;;;;1.77;71.68;97767.94;5088773;28;20422;-61
2022/04/02 08:36:09;;;;;;;;;;;;;;;1.73;72.85;97766.75;5092344;28;20005;-62
2022/04/02 08:38:50;;;;;;;;;;;;;;;1.58;71.98;97777.59;5080498;28;20405;-65
2022/04/02 08:41:18;;;;;;;;;;;;;;;1.44;73.11;97776.16;5067000;28;20422;-60
2022/04/02 08:43:50;;;;;;;;;;;;;;;1.55;72.78;97780.63;5091310;28;20034;-61
2022/04/02 08:46:31;;;;;;;;;;;;;;;1.64;72.34;97764.69;5068695;28;19924;-60
2022/04/02 08:48:58;;;;;;;;;;;;;;;1.60;71.99;97751.28;5077384;28;19968;-59
2022/04/02 08:51:37;;;;;;;;;;;;;;;1.55;72.75;97738.84;5087154;28;19924;-60
2022/04/02 08:54:04;;;;;;;;;;;;;;;1.48;71.03;97760.84;5090758;28;19935;-60
2022/04/02 08:56:31;;;;;;;;;;;;;;;1.42;72.47;97738.25;5090938;28;19968;-59
2022/04/02 08:59:03;;;;;;;;;;;;;;;1.39;72.11;97733.44;5090829;28;19928;-60
2022/04/02 09:01:47;;;;;;;;;;;;;;;1.26;72.52;97745.63;5092218;28;19930;-58
2022/04/02 09:04:13;;;;;;;;;;;;;;;1.27;72.53;97736.00;5091990;28;19934;-59
2022/04/02 09:06:49;;;;;;;;;;;;;;;1.36;73.01;97717.19;5091456;28;20030;-59
2022/04/02 09:09:50;;;;;;;;;;;;;;;1.29;72.35;97703.41;5091667;28;19928;-59
2022/04/02 09:12:28;;;;;;;;;;;;;;;1.55;72.84;97704.91;5091201;28;19928;-60
2022/04/02 09:15:06;;;;;;;;;;;;;;;1.57;74.03;97699.47;5073670;28;20308;-60
2022/04/02 09:17:35;;;;;;;;;;;;;;;1.55;73.06;97694.47;5091346;28;19928;-60
2022/04/02 09:20:03;;;;;;;;;;;;;;;1.47;72.30;97704.41;5090245;28;19958;-60
2022/04/02 09:22:29;;;;;;;;;;;;;;;1.48;71.87;97688.53;5091811;28;19942;-60
2022/04/02 09:24:54;;;;;;;;;;;;;;;1.60;71.38;97688.59;5091813;28;19928;-60
2022/04/02 09:27:39;;;;;;;;;;;;;;;1.46;70.46;97692.38;5090307;28;20277;-59
2022/04/02 09:30:05;;;;;;;;;;;;;;;1.30;71.82;97686.75;5091755;28;19939;-59
2022/04/02 09:32:30;;;;;;;;;;;;;;;1.36;73.06;97685.09;5089868;28;19927;-59
2022/04/02 09:35:14;;;;;;;;;;;;;;;1.36;72.20;97677.25;5090329;28;20023;-60
2022/04/02 09:37:46;;;;;;;;;;;;;;;1.30;72.55;97678.91;5091678;28;20042;-58
2022/04/02 09:40:11;;;;;;;;;;;;;;;1.34;72.91;97676.66;5091848;28;19992;-58
2022/04/02 09:42:38;;;;;;;;;;;;;;;1.44;71.97;97660.47;5091570;28;20339;-59
2022/04/02 09:45:18;;;;;;;;;;;;;;;1.32;71.10;97678.69;5091307;28;19924;-59
2022/04/02 09:48:02;;;;;;;;;;;;;;;1.35;71.51;97675.63;5091190;28;19928;-58
2022/04/02 09:50:29;;;;;;;;;;;;;;;1.38;71.53;97658.75;5091901;28;19970;-60
2022/04/02 09:52:57;;;;;;;;;;;;;;;1.48;71.81;97644.16;5090231;28;20304;-59
2022/04/02 09:55:22;;;;;;;;;;;;;;;1.53;71.86;97638.25;5090864;28;19924;-59
2022/04/02 09:57:48;;;;;;;;;;;;;;;1.46;71.62;97640.94;5091250;28;19928;-60
2022/04/02 10:00:16;;;;;;;;;;;;;;;1.51;71.80;97637.69;5089769;28;19924;-59
2022/04/02 10:03:01;;;;;;;;;;;;;;;1.57;71.72;97642.03;5091486;28;19935;-59
2022/04/02 10:05:31;;;;;;;;;;;;;;;1.57;71.73;97632.38;5089509;28;19963;-60
2022/04/02 10:08:06;;;;;;;;;;;;;;;1.53;71.83;97635.63;5091210;28;19985;-60
2022/04/02 10:10:31;;;;;;;;;;;;;;;1.64;72.33;97632.28;5089436;28;19924;-60
2022/04/02 10:12:57;;;;;;;;;;;;;;;1.64;70.95;97645.31;5090915;28;20335;-58
2022/04/02 10:15:23;;;;;;;;;;;;;;;1.51;71.52;97622.03;5091060;28;20353;-59
2022/04/02 10:17:53;;;;;;;;;;;;;;;1.45;71.22;97628.13;5090794;28;20143;-62
2022/04/02 10:20:20;;;;;;;;;;;;;;;1.38;71.32;97632.63;5094036;28;19924;-59
2022/04/02 10:22:46;;;;;;;;;;;;;;;1.39;71.95;97621.19;5094573;28;19928;-59
2022/04/02 10:25:14;;;;;;;;;;;;;;;1.35;71.62;97603.34;5094553;28;20433;-59
2022/04/02 10:27:41;;;;;;;;;;;;;;;1.41;71.84;97611.31;5094733;28;20421;-58
2022/04/02 10:30:11;;;;;;;;;;;;;;;1.39;71.05;97629.81;5094553;28;19923;-59
2022/04/02 10:32:51;;;;;;;;;;;;;;;1.34;71.51;97609.56;5094421;28;20374;-59
2022/04/02 10:35:17;;;;;;;;;;;;;;;1.31;70.92;97611.84;5094443;28;19931;-59
2022/04/02 10:37:44;;;;;;;;;;;;;;;1.34;71.10;97629.66;5093202;28;19928;-61
2022/04/02 10:40:10;;;;;;;;;;;;;;;1.31;71.52;97625.69;5094384;28;19954;-59
2022/04/02 10:42:37;;;;;;;;;;;;;;;1.30;71.69;97594.59;5076253;28;20361;-60
2022/04/02 10:45:04;;;;;;;;;;;;;;;1.38;72.08;97586.44;5094108;28;20335;-60
2022/04/02 10:47:30;;;;;;;;;;;;;;;1.45;72.30;97588.97;5076171;28;19932;-57
2022/04/02 10:50:03;;;;;;;;;;;;;;;1.54;70.97;97592.84;5059189;28;20389;-59
2022/04/02 10:52:29;;;;;;;;;;;;;;;1.50;71.57;97579.44;5094278;28;20426;-60
2022/04/02 10:54:54;;;;;;;;;;;;;;;1.44;70.91;97571.69;5092444;28;19951;-59
2022/04/02 10:57:20;;;;;;;;;;;;;;;1.40;71.70;97576.56;5092900;28;19951;-59
2022/04/02 10:59:47;;;;;;;;;;;;;;;1.47;71.47;97586.91;5093829;28;20274;-59
2022/04/02 11:02:22;;;;;;;;;;;;;;;1.36;71.01;97563.16;5093860;28;19973;-60
2022/04/02 11:04:58;;;;;;;;;;;;;;;1.34;71.60;97573.03;5093903;28;19927;-62
2022/04/02 11:07:28;;;;;;;;;;;;;;;1.40;71.64;97565.34;5075924;28;19928;-59
2022/04/02 11:09:54;;;;;;;;;;;;;;;1.39;70.97;97566.38;5092437;28;19924;-60
2022/04/02 11:12:26;;;;;;;;;;;;;;;1.43;70.84;97565.69;5093843;28;19932;-63
2022/04/02 11:14:52;;;;;;;;;;;;;;;1.36;70.83;97567.59;5092424;28;19931;-59
2022/04/02 11:17:29;;;;;;;;;;;;;;;1.32;70.90;97558.59;5075524;28;19928;-60
2022/04/02 11:20:05;;;;;;;;;;;;;;;1.33;71.03;97562.81;5093478;28;19934;-60
2022/04/02 11:22:46;;;;;;;;;;;;;;;1.35;70.26;97566.81;5093764;28;19928;-58
2022/04/02 11:25:14;;;;;;;;;;;;;;;1.32;70.40;97566.44;5093099;28;20027;-60
2022/04/02 11:27:41;;;;;;;;;;;;;;;1.35;69.90;97558.16;5093676;28;19936;-60
2022/04/02 11:30:08;;;;;;;;;;;;;;;1.39;70.77;97572.38;5092593;28;19924;-60
2022/04/02 11:32:43;;;;;;;;;;;;;;;1.41;70.21;97562.50;5093713;28;19951;-60
2022/04/02 11:35:10;;;;;;;;;;;;;;;1.44;69.69;97563.84;5093358;28;19993;-59
2022/04/02 11:37:40;;;;;;;;;;;;;;;1.38;69.83;97567.38;5075272;28;19974;-60
2022/04/02 11:40:07;;;;;;;;;;;;;;;1.40;70.33;97547.84;5074752;28;20010;-58
2022/04/02 11:42:34;;;;;;;;;;;;;;;1.50;69.96;97558.56;5092096;28;19935;-59
2022/04/02 11:45:03;;;;;;;;;;;;;;;1.46;70.34;97562.63;5091746;28;20026;-60
2022/04/02 11:47:29;;;;;;;;;;;;;;;1.42;70.18;97558.88;5092069;28;20441;-61
2022/04/02 11:50:02;;;;;;;;;;;;;;;1.41;71.95;97567.72;5093129;28;20385;-59
2022/04/02 11:52:28;;;;;;;;;;;;;;;1.39;72.54;97580.22;5092803;28;19973;-59
2022/04/02 11:54:54;;;;;;;;;;;;;;;1.40;73.58;97575.78;5074779;28;20011;-62
2022/04/02 11:57:20;;;;;;;;;;;;;;;1.31;74.82;97577.91;5074955;28;19932;-60
2022/04/02 11:59:50;;;;;;;;;;;;;;;1.31;75.82;97580.50;5092874;28;19974;-59
2022/04/02 12:02:35;;;;;;;;;;;;;;;1.27;76.22;97588.00;5092796;28;20010;-60
2022/04/02 12:05:00;;;;;;;;;;;;;;;1.28;76.86;97581.75;5093069;28;19927;-60
2022/04/02 12:07:26;;;;;;;;;;;;;;;1.25;76.96;97582.19;5091278;28;19931;-61
2022/04/02 12:09:52;;;;;;;;;;;;;;;1.13;77.54;97570.91;5091548;28;19931;-61
2022/04/02 12:12:22;;;;;;;;;;;;;;;1.14;78.14;97582.94;5092124;28;20301;-59
2022/04/02 12:14:47;;;;;;;;;;;;;;;1.16;78.16;97570.47;5092116;28;19924;-61
2022/04/02 12:17:13;;;;;;;;;;;;;;;1.20;78.69;97563.00;5073986;28;20039;-61
2022/04/02 12:19:40;;;;;;;;;;;;;;;1.14;78.50;97567.28;5092564;28;21735;-60
2022/04/02 12:22:16;;;;;;;;;;;;;;;1.00;78.44;97553.63;5074005;28;19981;-59
2022/04/02 12:24:42;;;;;;;;;;;;;;;0.94;79.54;97540.66;5092413;28;19924;-61
2022/04/02 12:27:07;;;;;;;;;;;;;;;0.93;79.86;97541.69;5090818;28;19928;-61
2022/04/02 12:29:33;;;;;;;;;;;;;;;0.82;79.70;97528.34;5092342;28;20023;-60
2022/04/02 12:31:59;;;;;;;;;;;;;;;0.77;80.50;97517.00;5090932;28;19967;-61
2022/04/02 12:34:25;;;;;;;;;;;;;;;0.66;79.60;97516.72;5090920;28;19938;-60
2022/04/02 12:36:51;;;;;;;;;;;;;;;0.66;80.53;97503.69;5091891;28;19928;-60
2022/04/02 12:39:17;;;;;;;;;;;;;;;0.57;81.11;97496.38;5090911;28;20011;-59
2022/04/02 12:41:43;;;;;;;;;;;;;;;0.54;81.27;97505.44;5089328;28;20058;-60
2022/04/02 12:44:09;;;;;;;;;;;;;;;0.58;81.10;97503.97;5092330;28;19928;-61
2022/04/02 12:46:35;;;;;;;;;;;;;;;0.51;80.80;97505.88;5090361;28;19947;-59
2022/04/02 12:49:00;;;;;;;;;;;;;;;0.39;81.65;97489.38;5091924;28;20358;-61
2022/04/02 12:51:26;;;;;;;;;;;;;;;0.35;81.65;97494.22;5090659;28;19924;-58
2022/04/02 12:54:01;;;;;;;;;;;;;;;0.25;81.98;97493.16;5074288;28;20352;-61
2022/04/02 12:56:28;;;;;;;;;;;;;;;0.19;82.44;97479.16;5090634;28;19949;-60
2022/04/02 12:58:54;;;;;;;;;;;;;;;0.21;82.16;97509.22;5073907;28;19928;-61
2022/04/02 13:01:20;;;;;;;;;;;;;;;0.17;81.96;97475.97;5090584;28;19928;-60